sensor_id;sensor_type;location;lat;lon;timestamp;pressure;altitude;pressure_sealevel;temperature;humidity
38227;BME280;24026;49.446;8.576;2023-01-19T00:01:01;99470.84;;;11.59;36.63
38227;BME280;24026;49.446;8.576;2023-01-19T00:03:22;99470.34;;;11.57;36.84
38227;BME280;24026;49.446;8.576;2023-01-19T00:05:43;99474.88;;;11.56;36.85
38227;BME280;24026;49.446;8.576;2023-01-19T00:08:04;99473.53;;;11.54;36.64
38227;BME280;24026;49.446;8.576;2023-01-19T00:10:33;99478.84;;;11.54;36.84
38227;BME280;24026;49.446;8.576;2023-01-19T00:12:54;99472.75;;;11.53;36.95
38227;BME280;24026;49.446;8.576;2023-01-19T00:15:14;99471.94;;;11.53;36.91
38227;BME280;24026;49.446;8.576;2023-01-19T00:17:34;99478.34;;;11.52;36.70
38227;BME280;24026;49.446;8.576;2023-01-19T00:19:55;99482.88;;;11.51;36.91
38227;BME280;24026;49.446;8.576;2023-01-19T00:22:15;99487.38;;;11.50;36.85
38227;BME280;24026;49.446;8.576;2023-01-19T00:24:36;99484.19;;;11.48;36.85
38227;BME280;24026;49.446;8.576;2023-01-19T00:26:56;99481.00;;;11.46;36.82
38227;BME280;24026;49.446;8.576;2023-01-19T00:29:16;99484.44;;;11.47;36.71
38227;BME280;24026;49.446;8.576;2023-01-19T00:31:37;99491.13;;;11.44;36.94
38227;BME280;24026;49.446;8.576;2023-01-19T00:33:58;99482.84;;;11.46;36.89
38227;BME280;24026;49.446;8.576;2023-01-19T00:36:19;99485.81;;;11.44;37.01
38227;BME280;24026;49.446;8.576;2023-01-19T00:38:39;99489.25;;;11.45;36.80
38227;BME280;24026;49.446;8.576;2023-01-19T00:41:00;99486.06;;;11.43;36.82
38227;BME280;24026;49.446;8.576;2023-01-19T00:43:20;99488.19;;;11.41;36.84
38227;BME280;24026;49.446;8.576;2023-01-19T00:45:41;99492.97;;;11.39;36.93
38227;BME280;24026;49.446;8.576;2023-01-19T00:48:01;99500.97;;;11.39;36.92
38227;BME280;24026;49.446;8.576;2023-01-19T00:50:23;99494.84;;;11.38;36.90
38227;BME280;24026;49.446;8.576;2023-01-19T00:52:44;99508.41;;;11.37;37.10
38227;BME280;24026;49.446;8.576;2023-01-19T00:55:06;99501.22;;;11.37;37.03
38227;BME280;24026;49.446;8.576;2023-01-19T00:57:27;99503.88;;;11.37;36.61
38227;BME280;24026;49.446;8.576;2023-01-19T00:59:48;99502.31;;;11.36;36.65
38227;BME280;24026;49.446;8.576;2023-01-19T01:02:09;99500.97;;;11.34;36.92
38227;BME280;24026;49.446;8.576;2023-01-19T01:04:30;99503.88;;;11.32;36.99
38227;BME280;24026;49.446;8.576;2023-01-19T01:06:51;99506.28;;;11.34;37.14
38227;BME280;24026;49.446;8.576;2023-01-19T01:09:11;99506.81;;;11.30;36.96
38227;BME280;24026;49.446;8.576;2023-01-19T01:11:31;99501.50;;;11.30;37.09
38227;BME280;24026;49.446;8.576;2023-01-19T01:13:52;99504.16;;;11.30;37.10
38227;BME280;24026;49.446;8.576;2023-01-19T01:16:15;99507.91;;;11.29;36.95
38227;BME280;24026;49.446;8.576;2023-01-19T01:18:36;99505.75;;;11.31;36.78
38227;BME280;24026;49.446;8.576;2023-01-19T01:21:03;99511.63;;;11.28;37.30
38227;BME280;24026;49.446;8.576;2023-01-19T01:23:24;99513.50;;;11.28;36.74
38227;BME280;24026;49.446;8.576;2023-01-19T01:25:44;99515.31;;;11.27;37.09
38227;BME280;24026;49.446;8.576;2023-01-19T01:28:07;99519.84;;;11.27;37.07
38227;BME280;24026;49.446;8.576;2023-01-19T01:30:29;99513.75;;;11.26;37.09
38227;BME280;24026;49.446;8.576;2023-01-19T01:32:49;99524.66;;;11.25;37.18
38227;BME280;24026;49.446;8.576;2023-01-19T01:35:10;99521.22;;;11.24;36.96
38227;BME280;24026;49.446;8.576;2023-01-19T01:37:31;99518.00;;;11.22;37.19
38227;BME280;24026;49.446;8.576;2023-01-19T01:39:51;99519.88;;;11.22;37.00
38227;BME280;24026;49.446;8.576;2023-01-19T01:42:17;99518.25;;;11.21;37.26
38227;BME280;24026;49.446;8.576;2023-01-19T01:44:55;99527.84;;;11.17;37.37
38227;BME280;24026;49.446;8.576;2023-01-19T01:49:43;99518.81;;;11.18;37.13
38227;BME280;24026;49.446;8.576;2023-01-19T01:52:04;99526.50;;;11.19;37.16
38227;BME280;24026;49.446;8.576;2023-01-19T01:54:28;99522.53;;;11.17;37.32
38227;BME280;24026;49.446;8.576;2023-01-19T01:56:52;99525.19;;;11.17;37.27
38227;BME280;24026;49.446;8.576;2023-01-19T01:59:18;99527.84;;;11.17;37.33
38227;BME280;24026;49.446;8.576;2023-01-19T02:01:44;99534.22;;;11.16;37.37
38227;BME280;24026;49.446;8.576;2023-01-19T02:04:24;99533.69;;;11.13;37.45
38227;BME280;24026;49.446;8.576;2023-01-19T02:06:45;99528.38;;;11.13;37.50
38227;BME280;24026;49.446;8.576;2023-01-19T02:09:26;99533.97;;;11.12;37.40
38227;BME280;24026;49.446;8.576;2023-01-19T02:12:06;99533.97;;;11.12;37.55
38227;BME280;24026;49.446;8.576;2023-01-19T02:14:45;99537.97;;;11.09;37.56
38227;BME280;24026;49.446;8.576;2023-01-19T02:17:06;99531.81;;;11.09;37.27
38227;BME280;24026;49.446;8.576;2023-01-19T02:19:36;99531.28;;;11.07;37.51
38227;BME280;24026;49.446;8.576;2023-01-19T02:22:04;99533.69;;;11.08;37.47
38227;BME280;24026;49.446;8.576;2023-01-19T02:24:29;99525.97;;;11.07;37.55
38227;BME280;24026;49.446;8.576;2023-01-19T02:26:50;99525.19;;;11.06;37.65
38227;BME280;24026;49.446;8.576;2023-01-19T02:29:12;99523.31;;;11.07;37.58
38227;BME280;24026;49.446;8.576;2023-01-19T02:31:35;99523.56;;;11.05;37.68
38227;BME280;24026;49.446;8.576;2023-01-19T02:33:57;99525.44;;;11.05;37.56
38227;BME280;24026;49.446;8.576;2023-01-19T02:36:23;99519.34;;;11.04;37.74
38227;BME280;24026;49.446;8.576;2023-01-19T02:38:46;99522.00;;;11.04;37.53
38227;BME280;24026;49.446;8.576;2023-01-19T02:41:10;99528.09;;;11.05;37.67
38227;BME280;24026;49.446;8.576;2023-01-19T02:43:33;99516.69;;;11.04;37.69
38227;BME280;24026;49.446;8.576;2023-01-19T02:45:54;99518.25;;;11.00;37.84
38227;BME280;24026;49.446;8.576;2023-01-19T02:48:17;99513.72;;;11.01;37.65
38227;BME280;24026;49.446;8.576;2023-01-19T02:50:45;99519.31;;;10.99;37.63
38227;BME280;24026;49.446;8.576;2023-01-19T02:56:42;99518.00;;;10.91;37.74
38227;BME280;24026;49.446;8.576;2023-01-19T03:05:06;99512.94;;;10.90;37.72
38227;BME280;24026;49.446;8.576;2023-01-19T03:07:40;99519.03;;;10.90;37.75
38227;BME280;24026;49.446;8.576;2023-01-19T03:10:28;99523.31;;;10.86;38.00
38227;BME280;24026;49.446;8.576;2023-01-19T03:12:59;99529.16;;;10.88;37.96
38227;BME280;24026;49.446;8.576;2023-01-19T03:15:28;99532.59;;;10.89;38.09
38227;BME280;24026;49.446;8.576;2023-01-19T03:17:50;99531.53;;;10.80;38.06
38227;BME280;24026;49.446;8.576;2023-01-19T03:20:13;99533.13;;;10.86;37.92
38227;BME280;24026;49.446;8.576;2023-01-19T03:22:38;99528.88;;;10.85;37.91
38227;BME280;24026;49.446;8.576;2023-01-19T03:24:59;99534.72;;;10.87;38.10
38227;BME280;24026;49.446;8.576;2023-01-19T03:27:32;99527.53;;;10.82;37.99
38227;BME280;24026;49.446;8.576;2023-01-19T03:30:05;99527.53;;;10.82;37.95
38227;BME280;24026;49.446;8.576;2023-01-19T03:32:31;99535.50;;;10.82;37.92
38227;BME280;24026;49.446;8.576;2023-01-19T03:34:56;99533.41;;;10.84;37.98
38227;BME280;24026;49.446;8.576;2023-01-19T03:37:19;99538.72;;;10.84;38.06
38227;BME280;24026;49.446;8.576;2023-01-19T03:39:40;99538.16;;;10.82;38.04
38227;BME280;24026;49.446;8.576;2023-01-19T03:42:04;99531.53;;;10.85;38.05
38227;BME280;24026;49.446;8.576;2023-01-19T03:44:27;99539.25;;;10.81;38.17
38227;BME280;24026;49.446;8.576;2023-01-19T03:46:47;99543.47;;;10.82;38.18
38227;BME280;24026;49.446;8.576;2023-01-19T03:49:10;99549.06;;;10.81;38.18
38227;BME280;24026;49.446;8.576;2023-01-19T03:51:35;99540.31;;;10.80;38.14
38227;BME280;24026;49.446;8.576;2023-01-19T03:53:55;99547.22;;;10.81;38.10
38227;BME280;24026;49.446;8.576;2023-01-19T03:56:18;99547.22;;;10.81;38.09
38227;BME280;24026;49.446;8.576;2023-01-19T03:58:39;99537.66;;;10.80;38.13
38227;BME280;24026;49.446;8.576;2023-01-19T04:01:00;99539.50;;;10.80;38.25
38227;BME280;24026;49.446;8.576;2023-01-19T04:03:20;99549.06;;;10.81;38.08
38227;BME280;24026;49.446;8.576;2023-01-19T04:05:41;99542.97;;;10.80;38.12
38227;BME280;24026;49.446;8.576;2023-01-19T04:08:01;99551.72;;;10.81;38.10
38227;BME280;24026;49.446;8.576;2023-01-19T04:10:22;99554.63;;;10.79;38.17
38227;BME280;24026;49.446;8.576;2023-01-19T04:12:44;99551.72;;;10.81;38.23
38227;BME280;24026;49.446;8.576;2023-01-19T04:15:05;99549.31;;;10.79;38.27
38227;BME280;24026;49.446;8.576;2023-01-19T04:17:26;99554.63;;;10.79;38.13
38227;BME280;24026;49.446;8.576;2023-01-19T04:19:46;99548.78;;;10.77;38.38
38227;BME280;24026;49.446;8.576;2023-01-19T04:22:06;99548.78;;;10.77;38.52
38227;BME280;24026;49.446;8.576;2023-01-19T04:24:27;99548.78;;;10.77;38.29
38227;BME280;24026;49.446;8.576;2023-01-19T04:26:50;99550.41;;;10.78;38.32
38227;BME280;24026;49.446;8.576;2023-01-19T04:29:11;99548.00;;;10.77;38.37
38227;BME280;24026;49.446;8.576;2023-01-19T04:31:33;99549.06;;;10.75;38.21
38227;BME280;24026;49.446;8.576;2023-01-19T04:33:54;99548.25;;;10.75;38.40
38227;BME280;24026;49.446;8.576;2023-01-19T04:36:15;99552.78;;;10.74;38.50
38227;BME280;24026;49.446;8.576;2023-01-19T04:38:35;99561.03;;;10.73;38.58
38227;BME280;24026;49.446;8.576;2023-01-19T04:40:55;99552.53;;;10.71;38.56
38227;BME280;24026;49.446;8.576;2023-01-19T04:43:16;99559.69;;;10.70;38.48
38227;BME280;24026;49.446;8.576;2023-01-19T04:45:36;99556.22;;;10.70;38.49
38227;BME280;24026;49.446;8.576;2023-01-19T04:47:57;99555.19;;;10.71;38.41
38227;BME280;24026;49.446;8.576;2023-01-19T04:50:17;99553.56;;;10.70;38.46
38227;BME280;24026;49.446;8.576;2023-01-19T04:52:38;99557.28;;;10.69;38.44
38227;BME280;24026;49.446;8.576;2023-01-19T04:54:58;99551.44;;;10.67;38.55
38227;BME280;24026;49.446;8.576;2023-01-19T04:57:19;99562.84;;;10.67;38.65
38227;BME280;24026;49.446;8.576;2023-01-19T04:59:39;99572.16;;;10.65;38.56
38227;BME280;24026;49.446;8.576;2023-01-19T05:01:59;99573.22;;;10.64;38.68
38227;BME280;24026;49.446;8.576;2023-01-19T05:04:20;99587.56;;;10.63;38.66
38227;BME280;24026;49.446;8.576;2023-01-19T05:06:41;99575.88;;;10.64;38.66
38227;BME280;24026;49.446;8.576;2023-01-19T05:09:02;99579.59;;;10.63;38.79
38227;BME280;24026;49.446;8.576;2023-01-19T05:11:22;99582.00;;;10.64;38.66
38227;BME280;24026;49.446;8.576;2023-01-19T05:13:43;99577.47;;;10.60;38.74
38227;BME280;24026;49.446;8.576;2023-01-19T05:16:04;99583.56;;;10.60;38.70
38227;BME280;24026;49.446;8.576;2023-01-19T05:18:25;99573.72;;;10.61;38.83
38227;BME280;24026;49.446;8.576;2023-01-19T05:20:45;99577.22;;;10.61;38.79
38227;BME280;24026;49.446;8.576;2023-01-19T05:23:06;99570.53;;;10.59;38.70
38227;BME280;24026;49.446;8.576;2023-01-19T05:25:27;99578.25;;;10.60;38.45
38227;BME280;24026;49.446;8.576;2023-01-19T05:27:48;99581.16;;;10.59;38.81
38227;BME280;24026;49.446;8.576;2023-01-19T05:30:09;99581.44;;;10.57;38.83
38227;BME280;24026;49.446;8.576;2023-01-19T05:32:29;99588.59;;;10.56;38.84
38227;BME280;24026;49.446;8.576;2023-01-19T05:34:50;99583.28;;;10.56;38.80
38227;BME280;24026;49.446;8.576;2023-01-19T05:37:10;99585.41;;;10.54;38.78
38227;BME280;24026;49.446;8.576;2023-01-19T05:39:30;99593.94;;;10.56;38.84
38227;BME280;24026;49.446;8.576;2023-01-19T05:41:51;99590.72;;;10.54;38.99
38227;BME280;24026;49.446;8.576;2023-01-19T05:44:12;99587.81;;;10.56;38.96
38227;BME280;24026;49.446;8.576;2023-01-19T05:46:33;99577.75;;;10.63;38.68
38227;BME280;24026;49.446;8.576;2023-01-19T05:48:55;99568.19;;;10.72;38.73
38227;BME280;24026;49.446;8.576;2023-01-19T05:51:16;99572.47;;;10.84;38.36
38227;BME280;24026;49.446;8.576;2023-01-19T05:53:38;99578.09;;;10.98;38.15
38227;BME280;24026;49.446;8.576;2023-01-19T05:56:00;99580.50;;;11.15;37.72
38227;BME280;24026;49.446;8.576;2023-01-19T05:58:23;99577.34;;;11.28;37.42
38227;BME280;24026;49.446;8.576;2023-01-19T06:00:44;99589.84;;;11.43;37.29
38227;BME280;24026;49.446;8.576;2023-01-19T06:03:05;99583.72;;;11.58;36.90
38227;BME280;24026;49.446;8.576;2023-01-19T06:05:25;99581.31;;;11.66;37.06
38227;BME280;24026;49.446;8.576;2023-01-19T06:07:46;99580.50;;;11.76;36.75
38227;BME280;24026;49.446;8.576;2023-01-19T06:10:08;99579.94;;;11.90;36.63
38227;BME280;24026;49.446;8.576;2023-01-19T06:12:29;99582.34;;;12.01;36.36
38227;BME280;24026;49.446;8.576;2023-01-19T06:14:50;99583.38;;;12.11;36.06
38227;BME280;24026;49.446;8.576;2023-01-19T06:17:12;99580.16;;;12.19;36.12
38227;BME280;24026;49.446;8.576;2023-01-19T06:19:33;99588.38;;;12.28;36.12
38227;BME280;24026;49.446;8.576;2023-01-19T06:21:55;99585.94;;;12.47;36.05
38227;BME280;24026;49.446;8.576;2023-01-19T06:24:16;99590.16;;;12.58;36.11
38227;BME280;24026;49.446;8.576;2023-01-19T06:26:39;99598.63;;;12.65;35.96
38227;BME280;24026;49.446;8.576;2023-01-19T06:28:59;99595.94;;;12.70;35.39
38227;BME280;24026;49.446;8.576;2023-01-19T06:31:21;99599.09;;;12.77;35.59
38227;BME280;24026;49.446;8.576;2023-01-19T06:33:41;99602.81;;;12.82;35.31
38227;BME280;24026;49.446;8.576;2023-01-19T06:36:02;99603.03;;;12.90;35.54
38227;BME280;24026;49.446;8.576;2023-01-19T06:38:23;99604.03;;;13.00;35.13
38227;BME280;24026;49.446;8.576;2023-01-19T06:40:52;99607.75;;;13.04;35.34
38227;BME280;24026;49.446;8.576;2023-01-19T06:43:14;99607.47;;;13.05;35.14
38227;BME280;24026;49.446;8.576;2023-01-19T06:45:35;99622.63;;;13.15;35.29
38227;BME280;24026;49.446;8.576;2023-01-19T06:47:59;99626.56;;;13.23;35.38
38227;BME280;24026;49.446;8.576;2023-01-19T06:50:21;99627.06;;;13.35;35.08
38227;BME280;24026;49.446;8.576;2023-01-19T06:52:42;99628.56;;;13.46;35.02
38227;BME280;24026;49.446;8.576;2023-01-19T06:55:04;99635.97;;;13.55;34.61
38227;BME280;24026;49.446;8.576;2023-01-19T06:57:26;99628.19;;;13.63;34.87
38227;BME280;24026;49.446;8.576;2023-01-19T06:59:48;99633.19;;;13.70;34.69
38227;BME280;24026;49.446;8.576;2023-01-19T07:02:10;99630.75;;;13.74;34.48
38227;BME280;24026;49.446;8.576;2023-01-19T07:04:31;99638.81;;;13.68;34.38
38227;BME280;24026;49.446;8.576;2023-01-19T07:06:54;99634.13;;;13.84;34.42
38227;BME280;24026;49.446;8.576;2023-01-19T07:09:14;99639.91;;;13.97;34.24
38227;BME280;24026;49.446;8.576;2023-01-19T07:11:38;99642.00;;;14.00;34.13
38227;BME280;24026;49.446;8.576;2023-01-19T07:14:00;99639.84;;;14.02;34.17
38227;BME280;24026;49.446;8.576;2023-01-19T07:16:21;99639.97;;;14.16;34.22
38227;BME280;24026;49.446;8.576;2023-01-19T07:18:43;99637.47;;;14.24;34.17
38227;BME280;24026;49.446;8.576;2023-01-19T07:21:06;99638.81;;;14.27;33.78
38227;BME280;24026;49.446;8.576;2023-01-19T07:23:28;99640.84;;;14.35;33.96
38227;BME280;24026;49.446;8.576;2023-01-19T07:25:51;99636.13;;;14.27;34.05
38227;BME280;24026;49.446;8.576;2023-01-19T07:28:13;99636.06;;;14.32;34.08
38227;BME280;24026;49.446;8.576;2023-01-19T07:30:36;99641.91;;;14.34;34.01
38227;BME280;24026;49.446;8.576;2023-01-19T07:32:58;99645.31;;;14.40;33.76
38227;BME280;24026;49.446;8.576;2023-01-19T07:35:18;99643.97;;;14.42;33.89
38227;BME280;24026;49.446;8.576;2023-01-19T07:37:39;99651.66;;;14.49;33.84
38227;BME280;24026;49.446;8.576;2023-01-19T07:40:00;99655.31;;;14.53;33.74
38227;BME280;24026;49.446;8.576;2023-01-19T07:42:21;99655.31;;;14.53;33.76
38227;BME280;24026;49.446;8.576;2023-01-19T07:44:42;99651.22;;;14.66;33.65
38227;BME280;24026;49.446;8.576;2023-01-19T07:47:03;99656.78;;;14.70;33.66
38227;BME280;24026;49.446;8.576;2023-01-19T07:49:27;99657.19;;;14.82;33.41
38227;BME280;24026;49.446;8.576;2023-01-19T07:51:48;99657.91;;;14.88;33.62
38227;BME280;24026;49.446;8.576;2023-01-19T07:54:09;99657.59;;;14.89;33.65
38227;BME280;24026;49.446;8.576;2023-01-19T07:56:30;99664.78;;;14.94;33.87
38227;BME280;24026;49.446;8.576;2023-01-19T07:58:52;99661.75;;;15.00;33.80
38227;BME280;24026;49.446;8.576;2023-01-19T08:01:49;99668.91;;;15.05;33.57
38227;BME280;24026;49.446;8.576;2023-01-19T08:04:49;99683.81;;;15.11;33.60
38227;BME280;24026;49.446;8.576;2023-01-19T08:07:10;99685.34;;;15.17;33.39
38227;BME280;24026;49.446;8.576;2023-01-19T08:09:31;99681.50;;;15.24;33.11
38227;BME280;24026;49.446;8.576;2023-01-19T08:11:51;99692.72;;;15.26;33.01
38227;BME280;24026;49.446;8.576;2023-01-19T08:14:12;99690.75;;;15.31;33.10
38227;BME280;24026;49.446;8.576;2023-01-19T08:16:33;99693.66;;;15.35;32.98
38227;BME280;24026;49.446;8.576;2023-01-19T08:18:56;99679.09;;;15.41;32.73
38227;BME280;24026;49.446;8.576;2023-01-19T08:21:16;99686.56;;;15.44;32.82
38227;BME280;24026;49.446;8.576;2023-01-19T08:23:40;99690.25;;;15.48;32.68
38227;BME280;24026;49.446;8.576;2023-01-19T08:26:16;99692.06;;;15.53;32.59
38227;BME280;24026;49.446;8.576;2023-01-19T08:28:37;99686.78;;;15.48;32.84
38227;BME280;24026;49.446;8.576;2023-01-19T08:30:57;99688.78;;;15.56;32.73
38227;BME280;24026;49.446;8.576;2023-01-19T08:33:19;99693.38;;;15.55;32.98
38227;BME280;24026;49.446;8.576;2023-01-19T08:35:41;99694.88;;;15.43;33.05
38227;BME280;24026;49.446;8.576;2023-01-19T08:38:03;99695.03;;;15.32;33.25
38227;BME280;24026;49.446;8.576;2023-01-19T08:40:24;99691.97;;;15.20;33.55
38227;BME280;24026;49.446;8.576;2023-01-19T08:42:44;99695.97;;;15.23;33.39
38227;BME280;24026;49.446;8.576;2023-01-19T08:45:05;99694.78;;;15.10;33.90
38227;BME280;24026;49.446;8.576;2023-01-19T08:47:26;99694.97;;;14.75;34.32
38227;BME280;24026;49.446;8.576;2023-01-19T08:49:48;99688.75;;;14.80;34.12
38227;BME280;24026;49.446;8.576;2023-01-19T08:52:08;99688.59;;;14.71;34.53
38227;BME280;24026;49.446;8.576;2023-01-19T08:54:29;99680.91;;;14.64;34.53
38227;BME280;24026;49.446;8.576;2023-01-19T08:56:50;99687.84;;;14.66;34.65
38227;BME280;24026;49.446;8.576;2023-01-19T08:59:10;99680.34;;;14.68;34.68
38227;BME280;24026;49.446;8.576;2023-01-19T09:01:31;99679.63;;;14.62;34.66
38227;BME280;24026;49.446;8.576;2023-01-19T09:03:52;99683.47;;;14.75;34.47
38227;BME280;24026;49.446;8.576;2023-01-19T09:06:15;99685.06;;;14.76;34.47
38227;BME280;24026;49.446;8.576;2023-01-19T09:08:39;99691.59;;;14.89;34.32
38227;BME280;24026;49.446;8.576;2023-01-19T09:10:59;99693.84;;;15.00;34.26
38227;BME280;24026;49.446;8.576;2023-01-19T09:13:20;99689.72;;;15.08;34.35
38227;BME280;24026;49.446;8.576;2023-01-19T09:15:41;99690.41;;;15.19;33.88
38227;BME280;24026;49.446;8.576;2023-01-19T09:18:06;99679.63;;;15.24;33.85
38227;BME280;24026;49.446;8.576;2023-01-19T09:20:30;99681.66;;;15.32;33.72
38227;BME280;24026;49.446;8.576;2023-01-19T09:22:58;99682.56;;;15.42;33.64
38227;BME280;24026;49.446;8.576;2023-01-19T09:25:20;99687.06;;;15.46;33.96
38227;BME280;24026;49.446;8.576;2023-01-19T09:27:40;99697.41;;;15.53;33.63
38227;BME280;24026;49.446;8.576;2023-01-19T09:30:03;99699.63;;;15.65;33.44
38227;BME280;24026;49.446;8.576;2023-01-19T09:32:25;99691.72;;;15.73;33.03
38227;BME280;24026;49.446;8.576;2023-01-19T09:34:46;99695.66;;;15.81;33.14
38227;BME280;24026;49.446;8.576;2023-01-19T09:37:08;99694.22;;;15.89;32.98
38227;BME280;24026;49.446;8.576;2023-01-19T09:39:29;99697.28;;;15.96;32.89
38227;BME280;24026;49.446;8.576;2023-01-19T09:42:05;99707.34;;;16.04;32.48
38227;BME280;24026;49.446;8.576;2023-01-19T09:44:34;99708.47;;;16.17;32.45
38227;BME280;24026;49.446;8.576;2023-01-19T09:46:55;99701.13;;;16.23;32.46
38227;BME280;24026;49.446;8.576;2023-01-19T09:49:22;99704.31;;;16.25;32.60
38227;BME280;24026;49.446;8.576;2023-01-19T09:51:52;99698.13;;;16.10;32.45
38227;BME280;24026;49.446;8.576;2023-01-19T09:54:25;99694.41;;;15.92;32.84
38227;BME280;24026;49.446;8.576;2023-01-19T09:56:49;99698.94;;;15.92;33.05
38227;BME280;24026;49.446;8.576;2023-01-19T10:02:11;99686.63;;;15.58;33.72
38227;BME280;24026;49.446;8.576;2023-01-19T10:10:27;99697.41;;;15.53;33.72
38227;BME280;24026;49.446;8.576;2023-01-19T10:18:57;99702.84;;;15.29;33.99
38227;BME280;24026;49.446;8.576;2023-01-19T10:21:15;99707.03;;;15.35;34.06
38227;BME280;24026;49.446;8.576;2023-01-19T10:26:49;99702.78;;;15.34;34.05
38227;BME280;24026;49.446;8.576;2023-01-19T10:29:35;99706.25;;;15.34;34.08
38227;BME280;24026;49.446;8.576;2023-01-19T10:32:07;99707.28;;;15.38;33.86
38227;BME280;24026;49.446;8.576;2023-01-19T10:34:31;99708.91;;;15.53;33.84
38227;BME280;24026;49.446;8.576;2023-01-19T10:39:39;99702.91;;;15.81;33.94
38227;BME280;24026;49.446;8.576;2023-01-19T10:42:03;99691.44;;;15.94;33.92
38227;BME280;24026;49.446;8.576;2023-01-19T10:44:34;99706.19;;;16.10;33.76
38227;BME280;24026;49.446;8.576;2023-01-19T10:46:57;99703.03;;;16.22;33.58
38227;BME280;24026;49.446;8.576;2023-01-19T10:49:40;99710.38;;;16.30;33.43
38227;BME280;24026;49.446;8.576;2023-01-19T10:52:05;99706.69;;;16.40;33.52
38227;BME280;24026;49.446;8.576;2023-01-19T10:54:29;99703.72;;;16.42;33.30
38227;BME280;24026;49.446;8.576;2023-01-19T10:57:29;99711.38;;;16.48;33.09
38227;BME280;24026;49.446;8.576;2023-01-19T10:59:54;99709.13;;;16.56;33.47
38227;BME280;24026;49.446;8.576;2023-01-19T11:02:23;99709.22;;;16.64;33.26
38227;BME280;24026;49.446;8.576;2023-01-19T11:04:50;99705.75;;;16.64;33.12
38227;BME280;24026;49.446;8.576;2023-01-19T11:07:32;99704.34;;;16.53;33.13
38227;BME280;24026;49.446;8.576;2023-01-19T11:12:52;99708.59;;;16.40;33.67
38227;BME280;24026;49.446;8.576;2023-01-19T11:15:21;99707.09;;;16.34;33.51
38227;BME280;24026;49.446;8.576;2023-01-19T11:17:44;99707.47;;;16.27;33.69
38227;BME280;24026;49.446;8.576;2023-01-19T11:20:18;99708.63;;;16.07;33.99
38227;BME280;24026;49.446;8.576;2023-01-19T11:22:40;99709.44;;;16.07;34.27
38227;BME280;24026;49.446;8.576;2023-01-19T11:25:03;99703.31;;;15.88;34.12
38227;BME280;24026;49.446;8.576;2023-01-19T11:27:26;99709.09;;;15.95;34.19
38227;BME280;24026;49.446;8.576;2023-01-19T11:29:51;99699.78;;;15.92;34.22
38227;BME280;24026;49.446;8.576;2023-01-19T11:32:22;99698.53;;;15.85;34.25
38227;BME280;24026;49.446;8.576;2023-01-19T11:34:43;99699.34;;;15.85;34.09
38227;BME280;24026;49.446;8.576;2023-01-19T11:37:28;99702.09;;;15.80;34.32
38227;BME280;24026;49.446;8.576;2023-01-19T11:39:54;99702.00;;;15.85;34.11
38227;BME280;24026;49.446;8.576;2023-01-19T11:42:18;99699.84;;;15.87;34.21
38227;BME280;24026;49.446;8.576;2023-01-19T11:47:32;99695.16;;;15.79;34.29
38227;BME280;24026;49.446;8.576;2023-01-19T11:53:03;99688.25;;;15.73;34.31
38227;BME280;24026;49.446;8.576;2023-01-19T11:55:55;99686.38;;;15.73;34.01
38227;BME280;24026;49.446;8.576;2023-01-19T11:58:18;99686.34;;;15.79;34.11
38227;BME280;24026;49.446;8.576;2023-01-19T12:00:44;99694.78;;;15.86;33.78
38227;BME280;24026;49.446;8.576;2023-01-19T12:05:58;99688.69;;;15.99;34.06
38227;BME280;24026;49.446;8.576;2023-01-19T12:08:44;99686.19;;;16.03;34.30
38227;BME280;24026;49.446;8.576;2023-01-19T12:11:08;99686.13;;;16.22;33.95
38227;BME280;24026;49.446;8.576;2023-01-19T12:13:31;99688.84;;;16.36;33.92
38227;BME280;24026;49.446;8.576;2023-01-19T12:16:25;99680.69;;;16.41;34.03
38227;BME280;24026;49.446;8.576;2023-01-19T12:19:02;99676.63;;;16.57;34.03
38227;BME280;24026;49.446;8.576;2023-01-19T12:21:27;99679.22;;;16.62;34.52
38227;BME280;24026;49.446;8.576;2023-01-19T12:26:41;99672.63;;;16.82;33.63
38227;BME280;24026;49.446;8.576;2023-01-19T12:29:17;99673.81;;;16.76;33.70
38227;BME280;24026;49.446;8.576;2023-01-19T12:31:43;99668.34;;;16.81;33.40
38227;BME280;24026;49.446;8.576;2023-01-19T12:36:50;99661.63;;;16.56;33.87
38227;BME280;24026;49.446;8.576;2023-01-19T12:39:20;99659.16;;;16.46;33.83
38227;BME280;24026;49.446;8.576;2023-01-19T12:41:43;99660.03;;;16.27;33.92
38227;BME280;24026;49.446;8.576;2023-01-19T12:44:23;99659.59;;;16.20;34.27
38227;BME280;24026;49.446;8.576;2023-01-19T12:46:48;99657.44;;;16.22;33.90
38227;BME280;24026;49.446;8.576;2023-01-19T12:49:26;99658.00;;;16.05;33.91
38227;BME280;24026;49.446;8.576;2023-01-19T12:51:51;99662.78;;;16.08;34.03
38227;BME280;24026;49.446;8.576;2023-01-19T12:54:28;99654.31;;;16.01;34.00
38227;BME280;24026;49.446;8.576;2023-01-19T12:56:58;99658.00;;;16.05;33.92
38227;BME280;24026;49.446;8.576;2023-01-19T12:59:26;99658.09;;;16.00;33.86
38227;BME280;24026;49.446;8.576;2023-01-19T13:07:27;99660.06;;;15.95;34.18
38227;BME280;24026;49.446;8.576;2023-01-19T13:09:47;99657.06;;;15.82;34.39
38227;BME280;24026;49.446;8.576;2023-01-19T13:12:22;99651.34;;;15.70;34.49
38227;BME280;24026;49.446;8.576;2023-01-19T13:14:42;99657.66;;;15.79;34.62
38227;BME280;24026;49.446;8.576;2023-01-19T13:17:17;99662.22;;;15.79;34.54
38227;BME280;24026;49.446;8.576;2023-01-19T13:19:48;99654.59;;;15.86;34.29
38227;BME280;24026;49.446;8.576;2023-01-19T13:25:11;99668.41;;;16.07;33.85
38227;BME280;24026;49.446;8.576;2023-01-19T13:27:36;99662.69;;;16.14;34.58
38227;BME280;24026;49.446;8.576;2023-01-19T13:29:59;99662.81;;;16.22;34.06
38227;BME280;24026;49.446;8.576;2023-01-19T13:32:20;99660.72;;;16.33;34.06
38227;BME280;24026;49.446;8.576;2023-01-19T13:34:49;99659.25;;;16.41;34.34
38227;BME280;24026;49.446;8.576;2023-01-19T13:37:18;99664.09;;;16.53;33.75
38227;BME280;24026;49.446;8.576;2023-01-19T13:39:41;99669.66;;;16.70;33.38
38227;BME280;24026;49.446;8.576;2023-01-19T13:42:30;99670.53;;;16.79;33.10